createdAt,value
2022-08-25T00:01:51.960Z,100.00
2022-08-25T00:04:19.255Z,100.00
2022-08-25T00:06:48.559Z,100.00
2022-08-25T00:09:18.373Z,100.00
2022-08-25T00:11:45.226Z,100.00
2022-08-25T00:14:17.085Z,100.00
2022-08-25T00:16:44.127Z,100.00
2022-08-25T00:19:15.906Z,100.00
2022-08-25T00:21:45.174Z,100.00
2022-08-25T00:24:13.687Z,100.00
2022-08-25T00:26:43.585Z,100.00
2022-08-25T00:29:10.971Z,100.00
2022-08-25T00:31:38.647Z,100.00
2022-08-25T00:34:12.452Z,100.00
2022-08-25T00:36:39.297Z,100.00
2022-08-25T00:39:07.560Z,100.00
2022-08-25T00:41:35.425Z,100.00
2022-08-25T00:44:05.513Z,100.00
2022-08-25T00:46:38.822Z,100.00
2022-08-25T00:49:25.065Z,100.00
2022-08-25T00:52:13.258Z,100.00
2022-08-25T00:54:49.595Z,100.00
2022-08-25T00:57:22.114Z,100.00
2022-08-25T01:00:01.940Z,100.00
2022-08-25T01:02:28.540Z,100.00
2022-08-25T01:04:55.113Z,100.00
2022-08-25T01:07:24.013Z,100.00
2022-08-25T01:09:52.479Z,100.00
2022-08-25T01:12:19.198Z,100.00
2022-08-25T01:14:46.710Z,100.00
2022-08-25T01:17:14.659Z,100.00
2022-08-25T01:19:41.543Z,100.00
2022-08-25T01:22:08.564Z,100.00
2022-08-25T01:24:46.953Z,100.00
2022-08-25T01:27:14.165Z,100.00
2022-08-25T01:29:41.418Z,100.00
2022-08-25T01:32:12.103Z,100.00
2022-08-25T01:34:41.508Z,100.00
2022-08-25T01:37:13.379Z,100.00
2022-08-25T01:39:40.683Z,100.00
2022-08-25T01:42:07.235Z,100.00
2022-08-25T01:44:36.024Z,100.00
2022-08-25T01:47:04.654Z,100.00
2022-08-25T01:49:31.164Z,100.00
2022-08-25T01:52:11.297Z,100.00
2022-08-25T01:54:38.170Z,100.00
2022-08-25T01:57:04.921Z,100.00
2022-08-25T01:59:31.590Z,100.00
2022-08-25T02:01:59.842Z,100.00
2022-08-25T02:04:29.508Z,100.00
2022-08-25T02:06:56.234Z,100.00
2022-08-25T02:09:23.003Z,100.00
2022-08-25T02:11:49.522Z,100.00
2022-08-25T02:14:17.122Z,100.00
2022-08-25T02:16:48.862Z,100.00
2022-08-25T02:19:16.796Z,100.00
2022-08-25T02:21:43.967Z,100.00
2022-08-25T02:24:12.064Z,100.00
2022-08-25T02:26:39.013Z,100.00
2022-08-25T02:29:07.540Z,100.00
2022-08-25T02:31:34.859Z,100.00
2022-08-25T02:34:02.377Z,100.00
2022-08-25T02:36:30.717Z,100.00
2022-08-25T02:38:57.259Z,100.00
2022-08-25T02:41:31.630Z,100.00
2022-08-25T02:43:59.053Z,100.00
2022-08-25T02:46:25.737Z,100.00
2022-08-25T02:48:53.292Z,100.00
2022-08-25T02:51:22.473Z,100.00
2022-08-25T02:53:49.832Z,100.00
2022-08-25T02:56:18.283Z,100.00
2022-08-25T02:58:45.973Z,100.00
2022-08-25T03:01:14.066Z,100.00
2022-08-25T03:03:44.322Z,100.00
2022-08-25T03:06:13.835Z,100.00
2022-08-25T03:08:42.094Z,100.00
2022-08-25T03:11:09.265Z,100.00
2022-08-25T03:13:36.652Z,100.00
2022-08-25T03:16:04.925Z,100.00
2022-08-25T03:18:31.895Z,100.00
2022-08-25T03:20:59.227Z,100.00
2022-08-25T03:23:26.217Z,100.00
2022-08-25T03:26:15.128Z,100.00
2022-08-25T03:28:42.047Z,100.00
2022-08-25T03:31:09.323Z,100.00
2022-08-25T03:33:36.883Z,100.00
2022-08-25T03:36:04.124Z,100.00
2022-08-25T03:38:30.708Z,100.00
2022-08-25T03:40:57.582Z,100.00
2022-08-25T03:43:24.118Z,100.00
2022-08-25T03:45:50.867Z,100.00
2022-08-25T03:48:18.133Z,100.00
2022-08-25T03:50:52.065Z,100.00
2022-08-25T03:53:19.974Z,100.00
2022-08-25T03:55:46.754Z,100.00
2022-08-25T03:58:13.563Z,100.00
2022-08-25T04:00:40.878Z,100.00
2022-08-25T04:03:07.791Z,100.00
2022-08-25T04:05:35.303Z,100.00
2022-08-25T04:08:02.104Z,100.00
2022-08-25T04:10:29.586Z,100.00
2022-08-25T04:12:57.353Z,100.00
2022-08-25T04:15:24.940Z,100.00
2022-08-25T04:17:57.083Z,100.00
2022-08-25T04:20:23.615Z,100.00
2022-08-25T04:22:50.121Z,100.00
2022-08-25T04:25:16.886Z,100.00
2022-08-25T04:27:43.396Z,100.00
2022-08-25T04:30:10.871Z,100.00
2022-08-25T04:32:37.603Z,100.00
2022-08-25T04:35:05.369Z,100.00
2022-08-25T04:37:33.382Z,100.00
2022-08-25T04:40:00.159Z,100.00
2022-08-25T04:42:27.020Z,100.00
2022-08-25T04:44:54.634Z,100.00
2022-08-25T04:47:22.106Z,100.00
2022-08-25T04:49:48.669Z,100.00
2022-08-25T04:52:15.342Z,100.00
2022-08-25T04:54:42.518Z,100.00
2022-08-25T04:57:09.541Z,100.00
2022-08-25T04:59:36.124Z,100.00
2022-08-25T05:02:05.124Z,100.00
2022-08-25T05:04:35.916Z,100.00
2022-08-25T05:07:03.391Z,100.00
2022-08-25T05:09:32.392Z,100.00
2022-08-25T05:12:01.118Z,100.00
2022-08-25T05:14:28.743Z,100.00
2022-08-25T05:16:56.432Z,100.00
2022-08-25T05:19:26.396Z,100.00
2022-08-25T05:21:53.758Z,100.00
2022-08-25T05:24:21.058Z,100.00
2022-08-25T05:26:47.649Z,100.00
2022-08-25T05:29:14.490Z,100.00
2022-08-25T05:31:47.061Z,100.00
2022-08-25T05:34:18.386Z,100.00
2022-08-25T05:36:44.965Z,100.00
2022-08-25T05:39:11.540Z,100.00
2022-08-25T05:41:38.564Z,100.00
2022-08-25T05:44:05.151Z,100.00
2022-08-25T05:46:31.989Z,100.00
2022-08-25T05:48:59.168Z,100.00
2022-08-25T05:51:26.638Z,100.00
2022-08-25T05:53:53.381Z,100.00
2022-08-25T05:56:20.326Z,100.00
2022-08-25T05:58:47.613Z,100.00
2022-08-25T06:01:45.398Z,100.00
2022-08-25T06:04:13.608Z,100.00
2022-08-25T06:06:40.609Z,100.00
2022-08-25T06:09:09.464Z,100.00
2022-08-25T06:11:38.030Z,100.00
2022-08-25T06:14:04.781Z,100.00
2022-08-25T06:16:31.672Z,100.00
2022-08-25T06:18:58.482Z,100.00
2022-08-25T06:21:25.308Z,100.00
2022-08-25T06:23:52.818Z,100.00
2022-08-25T06:26:21.119Z,100.00
2022-08-25T06:28:49.019Z,100.00
2022-08-25T06:31:15.661Z,100.00
2022-08-25T06:33:42.430Z,100.00
2022-08-25T06:36:09.028Z,100.00
2022-08-25T06:38:36.160Z,100.00
2022-08-25T06:41:04.495Z,100.00
2022-08-25T06:43:33.135Z,100.00
2022-08-25T06:46:14.828Z,100.00
2022-08-25T06:48:41.466Z,100.00
2022-08-25T06:51:10.643Z,100.00
2022-08-25T06:53:41.014Z,100.00
2022-08-25T06:56:07.593Z,100.00
2022-08-25T06:58:34.325Z,100.00
2022-08-25T07:01:23.562Z,100.00
2022-08-25T07:03:57.342Z,100.00
2022-08-25T07:06:25.010Z,100.00
2022-08-25T07:08:51.597Z,100.00
2022-08-25T07:11:18.574Z,99.67
2022-08-25T07:13:45.888Z,97.00
2022-08-25T07:16:15.352Z,97.25
2022-08-25T07:18:44.155Z,94.78
2022-08-25T07:21:12.338Z,91.65
2022-08-25T07:23:40.067Z,93.79
2022-08-25T07:26:36.677Z,90.66
2022-08-25T07:29:08.065Z,90.87
2022-08-25T07:31:34.969Z,88.81
2022-08-25T07:34:20.254Z,88.46
2022-08-25T07:36:46.963Z,87.60
2022-08-25T07:39:13.507Z,87.40
2022-08-25T07:41:41.970Z,87.30
2022-08-25T07:44:10.542Z,87.66
2022-08-25T07:46:37.518Z,84.98
2022-08-25T07:49:04.948Z,84.36
2022-08-25T07:51:44.159Z,85.00
2022-08-25T07:54:34.129Z,82.21
2022-08-25T07:57:01.648Z,81.06
2022-08-25T07:59:28.291Z,81.56
2022-08-25T08:01:54.930Z,79.75
2022-08-25T08:04:22.341Z,80.15
2022-08-25T08:06:49.083Z,77.54
2022-08-25T08:09:16.270Z,75.68
2022-08-25T08:11:51.484Z,72.45
2022-08-25T08:14:21.362Z,75.36
2022-08-25T08:16:48.026Z,71.24
2022-08-25T08:19:15.587Z,72.00
2022-08-25T08:21:42.390Z,71.61
2022-08-25T08:24:24.865Z,63.60
2022-08-25T08:26:59.073Z,63.61
2022-08-25T08:29:26.905Z,67.45
2022-08-25T08:31:53.542Z,70.41
2022-08-25T08:34:24.947Z,70.10
2022-08-25T08:36:52.479Z,66.80
2022-08-25T08:39:19.145Z,66.24
2022-08-25T08:42:17.367Z,64.92
2022-08-25T08:44:47.056Z,66.55
2022-08-25T08:47:36.349Z,61.77
2022-08-25T08:50:12.185Z,62.65
2022-08-25T08:52:39.696Z,60.58
2022-08-25T08:55:13.928Z,59.22
2022-08-25T08:57:45.385Z,57.69
2022-08-25T09:00:13.262Z,58.83
2022-08-25T09:02:52.152Z,60.71
2022-08-25T09:05:20.935Z,61.55
2022-08-25T09:08:15.721Z,60.15
2022-08-25T09:11:18.875Z,58.41
2022-08-25T09:14:04.443Z,60.78
2022-08-25T09:16:56.021Z,60.32
2022-08-25T09:19:32.080Z,56.80
2022-08-25T09:22:33.982Z,58.98
2022-08-25T09:25:08.861Z,55.89
2022-08-25T09:27:46.906Z,58.67
2022-08-25T09:30:17.231Z,56.01
2022-08-25T09:32:52.593Z,56.17
2022-08-25T09:35:23.891Z,56.24
2022-08-25T09:38:00.650Z,55.27
2022-08-25T09:40:30.854Z,51.14
2022-08-25T09:42:59.639Z,47.73
2022-08-25T09:45:45.562Z,50.94
2022-08-25T09:48:22.633Z,49.45
2022-08-25T09:50:52.025Z,49.74
2022-08-25T09:53:21.853Z,51.54
2022-08-25T09:56:00.193Z,48.48
2022-08-25T09:58:27.519Z,51.04
2022-08-25T10:01:05.490Z,49.23
2022-08-25T10:03:36.668Z,51.80
2022-08-25T10:06:13.108Z,51.47
2022-08-25T10:08:55.585Z,50.77
2022-08-25T10:11:30.987Z,46.10
2022-08-25T10:14:14.165Z,49.54
2022-08-25T10:16:40.924Z,50.19
2022-08-25T10:19:27.446Z,50.21
2022-08-25T10:22:10.911Z,43.01
2022-08-25T10:24:41.091Z,44.09
2022-08-25T10:27:30.318Z,43.13
2022-08-25T10:29:57.028Z,45.66
2022-08-25T10:32:32.838Z,46.68
2022-08-25T10:35:09.310Z,46.48
2022-08-25T10:37:57.099Z,47.44
2022-08-25T10:40:51.762Z,47.57
2022-08-25T10:43:33.659Z,46.73
2022-08-25T10:46:29.549Z,43.26
2022-08-25T10:49:08.560Z,45.04
2022-08-25T10:51:50.936Z,43.84
2022-08-25T10:54:44.567Z,40.44
2022-08-25T10:57:40.937Z,43.80
2022-08-25T11:00:14.507Z,41.62
2022-08-25T11:02:42.428Z,41.15
2022-08-25T11:05:26.279Z,43.04
2022-08-25T11:08:37.670Z,40.79
2022-08-25T11:11:11.522Z,39.26
2022-08-25T11:14:06.388Z,36.47
2022-08-25T11:16:52.623Z,37.46
2022-08-25T11:19:26.881Z,37.22
2022-08-25T11:22:15.296Z,38.21
2022-08-25T11:25:04.510Z,39.87
2022-08-25T11:27:55.247Z,37.70
2022-08-25T11:30:22.510Z,36.62
2022-08-25T11:32:55.083Z,36.00
2022-08-25T11:35:49.342Z,37.08
2022-08-25T11:38:25.184Z,38.19
2022-08-25T11:41:11.257Z,40.29
2022-08-25T11:44:15.700Z,38.22
2022-08-25T11:46:42.071Z,35.71
2022-08-25T11:49:27.650Z,40.30
2022-08-25T11:51:55.606Z,37.91
2022-08-25T11:54:45.677Z,37.49
2022-08-25T11:57:26.346Z,38.19
2022-08-25T11:59:53.312Z,35.20
2022-08-25T12:02:36.488Z,35.49
2022-08-25T12:05:11.838Z,37.56
2022-08-25T12:07:47.405Z,35.85
2022-08-25T12:10:25.681Z,32.52
2022-08-25T12:13:01.931Z,32.95
2022-08-25T12:15:31.320Z,31.53
2022-08-25T12:18:10.170Z,33.50
2022-08-25T12:20:53.147Z,32.41
2022-08-25T12:23:34.571Z,33.55
2022-08-25T12:26:30.414Z,32.84
2022-08-25T12:29:08.263Z,31.50
2022-08-25T12:31:56.978Z,32.75
2022-08-25T12:34:31.599Z,29.00
2022-08-25T12:37:14.085Z,29.41
2022-08-25T12:39:51.143Z,31.32
2022-08-25T12:42:31.417Z,31.85
2022-08-25T12:45:08.810Z,29.70
2022-08-25T12:47:37.777Z,29.40
2022-08-25T12:50:43.787Z,30.58
2022-08-25T12:53:18.141Z,30.47
2022-08-25T12:55:50.019Z,29.65
2022-08-25T12:58:17.015Z,30.80
2022-08-25T13:01:17.587Z,27.59
2022-08-25T13:04:17.935Z,27.76
2022-08-25T13:06:59.711Z,28.29
2022-08-25T13:09:51.997Z,29.14
2022-08-25T13:12:29.877Z,29.48
2022-08-25T13:14:58.939Z,29.26
2022-08-25T13:17:29.074Z,26.55
2022-08-25T13:20:23.336Z,27.81
2022-08-25T13:22:57.438Z,27.79
2022-08-25T13:25:32.659Z,27.72
2022-08-25T13:28:06.453Z,26.28
2022-08-25T13:30:39.165Z,25.50
2022-08-25T13:33:21.809Z,23.35
2022-08-25T13:36:13.690Z,24.85
2022-08-25T13:38:41.042Z,28.37
2022-08-25T13:41:18.647Z,25.72
2022-08-25T13:43:45.516Z,27.11
2022-08-25T13:46:12.445Z,23.47
2022-08-25T13:48:49.291Z,26.59
2022-08-25T13:51:31.714Z,27.65
2022-08-25T13:54:05.816Z,28.31
2022-08-25T13:56:41.199Z,27.93
2022-08-25T13:59:25.747Z,27.48
2022-08-25T14:01:54.787Z,26.84
2022-08-25T14:04:26.866Z,26.55
2022-08-25T14:07:33.783Z,26.86
2022-08-25T14:10:06.640Z,26.66
2022-08-25T14:12:46.402Z,26.94
2022-08-25T14:15:21.952Z,27.79
2022-08-25T14:18:00.899Z,28.37
2022-08-25T14:20:29.700Z,28.86
2022-08-25T14:23:02.697Z,29.78
2022-08-25T14:25:30.662Z,28.58
2022-08-25T14:28:07.286Z,28.31
2022-08-25T14:30:39.382Z,29.00
2022-08-25T14:33:06.745Z,27.81
2022-08-25T14:35:33.948Z,27.19
2022-08-25T14:38:10.447Z,28.06
2022-08-25T14:40:38.627Z,26.73
2022-08-25T14:43:09.617Z,25.58
2022-08-25T14:45:40.449Z,24.25
2022-08-25T14:48:18.018Z,24.52
2022-08-25T14:50:45.310Z,24.19
2022-08-25T14:53:12.258Z,24.03
2022-08-25T14:55:38.915Z,25.47
2022-08-25T14:58:06.920Z,24.93
2022-08-25T15:00:37.420Z,26.19
2022-08-25T15:03:04.186Z,26.43
2022-08-25T15:05:31.900Z,25.61
2022-08-25T15:08:17.030Z,26.72
2022-08-25T15:10:44.221Z,26.57
2022-08-25T15:13:11.030Z,26.17
2022-08-25T15:15:52.167Z,27.21
2022-08-25T15:18:20.970Z,25.93
2022-08-25T15:20:50.007Z,26.65
2022-08-25T15:23:17.681Z,25.67
2022-08-25T15:25:46.221Z,25.19
2022-08-25T15:28:13.009Z,23.89
2022-08-25T15:30:45.969Z,25.88
2022-08-25T15:33:13.865Z,24.27
2022-08-25T15:35:41.101Z,24.26
2022-08-25T15:38:08.227Z,24.34
2022-08-25T15:40:37.525Z,25.90
2022-08-25T15:43:05.706Z,24.02
2022-08-25T15:45:35.826Z,23.38
2022-08-25T15:48:02.742Z,23.30
2022-08-25T15:50:30.015Z,24.38
2022-08-25T15:52:56.675Z,23.39
2022-08-25T15:55:23.499Z,24.40
2022-08-25T15:57:50.294Z,24.02
2022-08-25T16:00:18.368Z,23.52
2022-08-25T16:02:45.414Z,25.11
2022-08-25T16:05:13.784Z,24.52
2022-08-25T16:07:45.831Z,25.38
2022-08-25T16:10:13.672Z,26.17
2022-08-25T16:12:42.630Z,25.68
2022-08-25T16:15:12.125Z,26.88
2022-08-25T16:17:40.711Z,26.45
2022-08-25T16:20:12.578Z,28.08
2022-08-25T16:22:40.906Z,29.30
2022-08-25T16:25:07.876Z,29.91
2022-08-25T16:27:38.675Z,29.18
2022-08-25T16:30:07.111Z,30.71
2022-08-25T16:32:33.627Z,30.13
2022-08-25T16:35:00.645Z,31.26
2022-08-25T16:37:27.795Z,31.92
2022-08-25T16:39:56.591Z,32.86
2022-08-25T16:42:23.211Z,34.68
2022-08-25T16:44:49.765Z,34.15
2022-08-25T16:47:20.614Z,35.95
2022-08-25T16:49:51.954Z,35.52
2022-08-25T16:52:36.992Z,36.61
2022-08-25T16:55:13.096Z,37.16
2022-08-25T16:57:55.094Z,36.93
2022-08-25T17:00:28.328Z,37.29
2022-08-25T17:03:00.346Z,37.76
2022-08-25T17:05:29.160Z,38.46
2022-08-25T17:08:15.099Z,40.09
2022-08-25T17:10:43.608Z,39.57
2022-08-25T17:13:11.340Z,41.06
2022-08-25T17:15:43.345Z,41.39
2022-08-25T17:18:11.170Z,41.29
2022-08-25T17:20:38.328Z,40.99
2022-08-25T17:23:12.018Z,41.74
2022-08-25T17:25:42.996Z,41.93
2022-08-25T17:28:11.922Z,42.19
2022-08-25T17:30:39.325Z,42.92
2022-08-25T17:33:05.988Z,43.96
2022-08-25T17:35:37.637Z,44.90
2022-08-25T17:38:04.256Z,46.50
2022-08-25T17:40:33.575Z,46.92
2022-08-25T17:43:01.668Z,46.76
2022-08-25T17:45:28.236Z,47.28
2022-08-25T17:47:55.091Z,48.76
2022-08-25T17:50:22.183Z,49.06
2022-08-25T17:52:49.110Z,49.70
2022-08-25T17:55:15.662Z,49.58
2022-08-25T17:57:42.422Z,50.25
2022-08-25T18:00:12.022Z,50.95
2022-08-25T18:02:39.854Z,49.86
2022-08-25T18:05:07.062Z,52.73
2022-08-25T18:07:33.733Z,52.54
2022-08-25T18:10:00.526Z,51.71
2022-08-25T18:12:27.523Z,52.25
2022-08-25T18:14:54.311Z,52.20
2022-08-25T18:17:21.934Z,53.31
2022-08-25T18:19:49.633Z,54.13
2022-08-25T18:22:16.879Z,56.40
2022-08-25T18:24:44.476Z,55.71
2022-08-25T18:27:13.545Z,56.26
2022-08-25T18:29:41.354Z,53.89
2022-08-25T18:32:09.482Z,57.79
2022-08-25T18:34:39.046Z,56.75
2022-08-25T18:37:25.487Z,57.72
2022-08-25T18:40:10.508Z,58.11
2022-08-25T18:42:37.145Z,60.37
2022-08-25T18:45:07.206Z,61.25
2022-08-25T18:47:38.928Z,59.74
2022-08-25T18:50:06.099Z,61.42
2022-08-25T18:52:32.821Z,60.25
2022-08-25T18:55:00.299Z,61.53
2022-08-25T18:57:27.803Z,63.04
2022-08-25T18:59:55.550Z,62.87
2022-08-25T19:02:22.273Z,61.40
2022-08-25T19:04:52.624Z,62.46
2022-08-25T19:07:19.687Z,62.74
2022-08-25T19:09:46.375Z,60.55
2022-08-25T19:12:22.137Z,62.86
2022-08-25T19:14:49.592Z,63.29
2022-08-25T19:17:17.302Z,64.24
2022-08-25T19:19:44.167Z,63.11
2022-08-25T19:22:31.649Z,63.53
2022-08-25T19:24:58.402Z,65.23
2022-08-25T19:27:25.355Z,65.76
2022-08-25T19:29:52.403Z,64.74
2022-08-25T19:32:19.098Z,67.09
2022-08-25T19:34:47.375Z,65.67
2022-08-25T19:37:18.394Z,65.44
2022-08-25T19:39:52.957Z,67.56
2022-08-25T19:42:37.008Z,68.91
2022-08-25T19:45:08.532Z,69.17
2022-08-25T19:47:35.188Z,68.10
2022-08-25T19:50:01.840Z,69.63
2022-08-25T19:52:28.831Z,68.50
2022-08-25T19:54:55.760Z,69.60
2022-08-25T19:57:28.154Z,70.30
2022-08-25T20:00:13.920Z,72.33
2022-08-25T20:02:40.561Z,71.81
2022-08-25T20:05:08.200Z,70.22
2022-08-25T20:07:37.863Z,69.43
2022-08-25T20:10:08.854Z,69.25
2022-08-25T20:12:41.709Z,71.28
2022-08-25T20:15:10.041Z,69.62
2022-08-25T20:17:36.602Z,71.14
2022-08-25T20:20:10.755Z,73.53
2022-08-25T20:22:37.998Z,73.42
2022-08-25T20:25:15.171Z,73.51
2022-08-25T20:27:47.658Z,72.92
2022-08-25T20:30:22.246Z,74.01
2022-08-25T20:32:50.633Z,75.21
2022-08-25T20:35:18.658Z,74.47
2022-08-25T20:37:46.557Z,75.01
2022-08-25T20:40:15.800Z,75.27
2022-08-25T20:42:44.407Z,77.43
2022-08-25T20:45:13.041Z,75.81
2022-08-25T20:47:39.613Z,74.99
2022-08-25T20:50:07.403Z,75.95
2022-08-25T20:52:34.870Z,76.39
2022-08-25T20:55:01.505Z,75.79
2022-08-25T20:57:28.107Z,77.87
2022-08-25T20:59:57.034Z,76.84
2022-08-25T21:02:24.825Z,76.97
2022-08-25T21:04:52.245Z,75.12
2022-08-25T21:07:20.298Z,76.03
2022-08-25T21:09:47.564Z,75.72
2022-08-25T21:12:14.835Z,75.95
2022-08-25T21:14:41.856Z,78.18
2022-08-25T21:17:12.072Z,79.40
2022-08-25T21:19:40.108Z,78.95
2022-08-25T21:22:08.967Z,79.53
2022-08-25T21:24:37.655Z,78.71
2022-08-25T21:27:04.637Z,80.28
2022-08-25T21:29:32.833Z,79.76
2022-08-25T21:31:59.674Z,79.80
2022-08-25T21:34:28.834Z,81.24
2022-08-25T21:36:57.890Z,79.90
2022-08-25T21:39:32.098Z,80.00
2022-08-25T21:42:01.227Z,80.79
2022-08-25T21:44:28.722Z,81.74
2022-08-25T21:46:56.122Z,80.76
2022-08-25T21:49:24.720Z,80.92
2022-08-25T21:52:00.058Z,80.52
2022-08-25T21:54:28.792Z,79.44
2022-08-25T21:57:02.614Z,80.57
2022-08-25T21:59:32.495Z,80.45
2022-08-25T22:02:05.040Z,79.66
2022-08-25T22:04:32.357Z,82.14
2022-08-25T22:06:59.307Z,80.69
2022-08-25T22:09:26.547Z,82.08
2022-08-25T22:11:55.664Z,78.78
2022-08-25T22:14:23.851Z,79.15
2022-08-25T22:16:53.190Z,78.86
2022-08-25T22:19:21.497Z,79.41
2022-08-25T22:21:50.155Z,79.13
2022-08-25T22:24:17.652Z,81.33
2022-08-25T22:26:47.458Z,80.26
2022-08-25T22:29:14.542Z,80.78
2022-08-25T22:31:52.927Z,82.01
2022-08-25T22:34:19.771Z,81.35
2022-08-25T22:36:59.696Z,82.97
2022-08-25T22:39:27.018Z,83.87
2022-08-25T22:41:53.902Z,85.53
2022-08-25T22:44:20.454Z,84.25
2022-08-25T22:46:46.998Z,84.29
2022-08-25T22:49:13.816Z,84.66
2022-08-25T22:51:40.959Z,85.23
2022-08-25T22:54:09.592Z,84.81
2022-08-25T22:56:38.882Z,85.43
2022-08-25T22:59:09.458Z,84.67
2022-08-25T23:01:36.766Z,85.54
2022-08-25T23:04:04.975Z,86.04
2022-08-25T23:06:32.102Z,86.58
2022-08-25T23:08:58.773Z,86.22
2022-08-25T23:11:25.730Z,87.00
2022-08-25T23:13:57.509Z,86.62
2022-08-25T23:16:25.169Z,87.50
2022-08-25T23:18:52.970Z,87.91
2022-08-25T23:21:41.341Z,88.58
2022-08-25T23:24:11.161Z,88.73
2022-08-25T23:26:42.496Z,89.31
2022-08-25T23:29:17.925Z,89.39
2022-08-25T23:31:47.146Z,89.46
2022-08-25T23:34:16.032Z,89.34
2022-08-25T23:36:43.425Z,89.87
2022-08-25T23:39:11.083Z,90.20
2022-08-25T23:41:40.008Z,90.01
2022-08-25T23:44:06.693Z,90.87
2022-08-25T23:46:36.174Z,92.15
2022-08-25T23:49:04.906Z,92.95
2022-08-25T23:51:34.606Z,93.42
2022-08-25T23:54:09.322Z,93.86
2022-08-25T23:56:42.494Z,93.36
2022-08-25T23:59:12.999Z,93.06
